Woodlawn, Tennessee
Current Conditions -  °F | °C
As of 2:52 PM on Friday 24 Oct 2014 (Local Time) from KCKV Reporting Station
Broken Clouds Broken Clouds  
Wind Chill: 20°   Ceiling: 4100
Heat Index: 20°   Visibility: 10mi
Dew Point:   Wind: 3mph
Humidity: 42%   Direction: 310°NW
Pressure: 30.07"   Gusts: NA
Location:  36.54°N, 87.51°W
Report Text: KCKV 241952Z AUTO 31003KT 10SM BKN041 20/07 A3007 RMK AO2 SLP180 T02000067
Loading
Personal Weather Stations






























Interactive Weather Map
Tropical Storm Tracking
New forecast layout! Learn more

10-Day Weather Forecast

Advertisements
Track Severe Weather on mobile